sensor_id;sensor_type;location;lat;lon;timestamp;P1;durP1;ratioP1;P2;durP2;ratioP2
35576;SDS011;21680;52.400;16.920;2023-07-31T00:02:21;5.00;;;2.20;;
35576;SDS011;21680;52.400;16.920;2023-07-31T00:04:46;7.30;;;2.30;;
35576;SDS011;21680;52.400;16.920;2023-07-31T00:07:12;5.40;;;2.10;;
35576;SDS011;21680;52.400;16.920;2023-07-31T00:09:37;5.80;;;2.20;;
35576;SDS011;21680;52.400;16.920;2023-07-31T00:12:03;6.00;;;2.50;;
35576;SDS011;21680;52.400;16.920;2023-07-31T00:14:28;4.50;;;2.60;;
35576;SDS011;21680;52.400;16.920;2023-07-31T00:16:54;4.20;;;1.90;;
35576;SDS011;21680;52.400;16.920;2023-07-31T00:19:19;4.70;;;2.20;;
35576;SDS011;21680;52.400;16.920;2023-07-31T00:21:44;8.30;;;3.00;;
35576;SDS011;21680;52.400;16.920;2023-07-31T00:24:09;6.40;;;2.30;;
35576;SDS011;21680;52.400;16.920;2023-07-31T00:26:35;5.10;;;2.50;;
35576;SDS011;21680;52.400;16.920;2023-07-31T00:29:00;4.90;;;2.70;;
35576;SDS011;21680;52.400;16.920;2023-07-31T00:31:26;5.40;;;2.50;;
35576;SDS011;21680;52.400;16.920;2023-07-31T00:33:51;8.60;;;3.50;;
35576;SDS011;21680;52.400;16.920;2023-07-31T00:36:17;6.40;;;3.00;;
35576;SDS011;21680;52.400;16.920;2023-07-31T00:38:43;6.20;;;2.70;;
35576;SDS011;21680;52.400;16.920;2023-07-31T00:41:08;7.60;;;2.70;;
35576;SDS011;21680;52.400;16.920;2023-07-31T00:43:34;5.10;;;2.50;;
35576;SDS011;21680;52.400;16.920;2023-07-31T00:45:59;6.50;;;2.50;;
35576;SDS011;21680;52.400;16.920;2023-07-31T00:48:24;7.10;;;3.00;;
35576;SDS011;21680;52.400;16.920;2023-07-31T00:50:50;8.10;;;2.80;;
35576;SDS011;21680;52.400;16.920;2023-07-31T00:53:16;11.50;;;3.00;;
35576;SDS011;21680;52.400;16.920;2023-07-31T00:55:42;3.40;;;2.30;;
35576;SDS011;21680;52.400;16.920;2023-07-31T00:58:08;4.90;;;2.40;;
35576;SDS011;21680;52.400;16.920;2023-07-31T01:00:33;3.50;;;2.70;;
35576;SDS011;21680;52.400;16.920;2023-07-31T01:02:58;8.50;;;2.70;;
35576;SDS011;21680;52.400;16.920;2023-07-31T01:05:29;7.60;;;2.70;;
35576;SDS011;21680;52.400;16.920;2023-07-31T01:08:08;7.50;;;3.20;;
35576;SDS011;21680;52.400;16.920;2023-07-31T01:10:48;3.80;;;2.50;;
35576;SDS011;21680;52.400;16.920;2023-07-31T01:13:19;7.50;;;2.50;;
35576;SDS011;21680;52.400;16.920;2023-07-31T01:15:46;11.10;;;3.40;;
35576;SDS011;21680;52.400;16.920;2023-07-31T01:18:11;7.20;;;2.50;;
35576;SDS011;21680;52.400;16.920;2023-07-31T01:20:36;10.50;;;2.60;;
35576;SDS011;21680;52.400;16.920;2023-07-31T01:26:15;9.40;;;2.70;;
35576;SDS011;21680;52.400;16.920;2023-07-31T01:29:05;7.60;;;3.10;;
35576;SDS011;21680;52.400;16.920;2023-07-31T01:31:35;7.20;;;2.90;;
35576;SDS011;21680;52.400;16.920;2023-07-31T01:34:02;6.80;;;2.30;;
35576;SDS011;21680;52.400;16.920;2023-07-31T01:36:30;5.50;;;2.80;;
35576;SDS011;21680;52.400;16.920;2023-07-31T01:38:59;4.60;;;2.50;;
35576;SDS011;21680;52.400;16.920;2023-07-31T01:41:25;14.10;;;2.70;;
35576;SDS011;21680;52.400;16.920;2023-07-31T01:43:51;6.10;;;2.90;;
35576;SDS011;21680;52.400;16.920;2023-07-31T01:46:16;5.30;;;2.60;;
35576;SDS011;21680;52.400;16.920;2023-07-31T01:48:41;4.60;;;2.90;;
35576;SDS011;21680;52.400;16.920;2023-07-31T01:51:07;5.20;;;2.60;;
35576;SDS011;21680;52.400;16.920;2023-07-31T01:53:32;6.30;;;2.80;;
35576;SDS011;21680;52.400;16.920;2023-07-31T01:55:57;8.80;;;3.00;;
35576;SDS011;21680;52.400;16.920;2023-07-31T01:58:22;6.30;;;2.80;;
35576;SDS011;21680;52.400;16.920;2023-07-31T02:00:48;5.10;;;2.60;;
35576;SDS011;21680;52.400;16.920;2023-07-31T02:03:13;3.60;;;2.20;;
35576;SDS011;21680;52.400;16.920;2023-07-31T02:05:45;6.30;;;3.00;;
35576;SDS011;21680;52.400;16.920;2023-07-31T02:08:14;5.80;;;2.50;;
35576;SDS011;21680;52.400;16.920;2023-07-31T02:10:40;3.40;;;2.20;;
35576;SDS011;21680;52.400;16.920;2023-07-31T02:13:05;9.10;;;3.10;;
35576;SDS011;21680;52.400;16.920;2023-07-31T02:15:31;7.20;;;2.60;;
35576;SDS011;21680;52.400;16.920;2023-07-31T02:17:56;4.20;;;2.70;;
35576;SDS011;21680;52.400;16.920;2023-07-31T02:20:24;4.70;;;2.50;;
35576;SDS011;21680;52.400;16.920;2023-07-31T02:22:49;6.30;;;3.70;;
35576;SDS011;21680;52.400;16.920;2023-07-31T02:25:15;4.50;;;2.80;;
35576;SDS011;21680;52.400;16.920;2023-07-31T02:27:40;6.30;;;2.70;;
35576;SDS011;21680;52.400;16.920;2023-07-31T02:30:06;9.60;;;3.10;;
35576;SDS011;21680;52.400;16.920;2023-07-31T02:32:31;6.70;;;3.00;;
35576;SDS011;21680;52.400;16.920;2023-07-31T02:34:57;4.30;;;3.00;;
35576;SDS011;21680;52.400;16.920;2023-07-31T02:37:22;7.30;;;3.00;;
35576;SDS011;21680;52.400;16.920;2023-07-31T02:39:48;6.20;;;3.10;;
35576;SDS011;21680;52.400;16.920;2023-07-31T02:42:13;5.90;;;2.60;;
35576;SDS011;21680;52.400;16.920;2023-07-31T02:44:39;5.90;;;2.50;;
35576;SDS011;21680;52.400;16.920;2023-07-31T02:47:04;3.40;;;2.40;;
35576;SDS011;21680;52.400;16.920;2023-07-31T02:49:30;6.20;;;2.50;;
35576;SDS011;21680;52.400;16.920;2023-07-31T02:51:55;6.90;;;3.00;;
35576;SDS011;21680;52.400;16.920;2023-07-31T02:54:20;4.30;;;3.10;;
35576;SDS011;21680;52.400;16.920;2023-07-31T02:56:46;5.80;;;2.40;;
35576;SDS011;21680;52.400;16.920;2023-07-31T02:59:12;4.20;;;2.90;;
35576;SDS011;21680;52.400;16.920;2023-07-31T03:01:37;6.00;;;3.00;;
35576;SDS011;21680;52.400;16.920;2023-07-31T03:04:03;4.70;;;2.80;;
35576;SDS011;21680;52.400;16.920;2023-07-31T03:06:28;7.20;;;3.40;;
35576;SDS011;21680;52.400;16.920;2023-07-31T03:08:53;6.90;;;3.00;;
35576;SDS011;21680;52.400;16.920;2023-07-31T03:11:19;6.10;;;3.00;;
35576;SDS011;21680;52.400;16.920;2023-07-31T03:13:44;4.70;;;3.00;;
35576;SDS011;21680;52.400;16.920;2023-07-31T03:16:09;4.30;;;3.00;;
35576;SDS011;21680;52.400;16.920;2023-07-31T03:18:34;5.40;;;3.40;;
35576;SDS011;21680;52.400;16.920;2023-07-31T03:20:59;9.60;;;3.60;;
35576;SDS011;21680;52.400;16.920;2023-07-31T03:23:25;18.50;;;3.60;;
35576;SDS011;21680;52.400;16.920;2023-07-31T03:25:57;8.50;;;3.60;;
35576;SDS011;21680;52.400;16.920;2023-07-31T03:28:23;5.80;;;3.40;;
35576;SDS011;21680;52.400;16.920;2023-07-31T03:30:48;5.40;;;3.60;;
35576;SDS011;21680;52.400;16.920;2023-07-31T03:33:14;6.00;;;3.60;;
35576;SDS011;21680;52.400;16.920;2023-07-31T03:35:39;6.60;;;4.10;;
35576;SDS011;21680;52.400;16.920;2023-07-31T03:38:04;9.40;;;3.80;;
35576;SDS011;21680;52.400;16.920;2023-07-31T03:40:29;8.50;;;4.10;;
35576;SDS011;21680;52.400;16.920;2023-07-31T03:42:55;8.90;;;4.10;;
35576;SDS011;21680;52.400;16.920;2023-07-31T03:45:20;14.10;;;4.10;;
35576;SDS011;21680;52.400;16.920;2023-07-31T03:47:45;7.00;;;4.00;;
35576;SDS011;21680;52.400;16.920;2023-07-31T03:50:10;7.70;;;4.30;;
35576;SDS011;21680;52.400;16.920;2023-07-31T03:52:36;10.60;;;3.70;;
35576;SDS011;21680;52.400;16.920;2023-07-31T03:55:01;9.00;;;3.80;;
35576;SDS011;21680;52.400;16.920;2023-07-31T03:57:26;4.80;;;3.90;;
35576;SDS011;21680;52.400;16.920;2023-07-31T03:59:52;8.70;;;3.40;;
35576;SDS011;21680;52.400;16.920;2023-07-31T04:02:17;5.30;;;3.20;;
35576;SDS011;21680;52.400;16.920;2023-07-31T04:04:43;12.50;;;4.00;;
35576;SDS011;21680;52.400;16.920;2023-07-31T04:07:09;10.00;;;4.00;;
35576;SDS011;21680;52.400;16.920;2023-07-31T04:09:34;6.20;;;3.60;;
35576;SDS011;21680;52.400;16.920;2023-07-31T04:11:59;13.90;;;3.90;;
35576;SDS011;21680;52.400;16.920;2023-07-31T04:14:24;5.80;;;3.40;;
35576;SDS011;21680;52.400;16.920;2023-07-31T04:16:50;7.30;;;3.60;;
35576;SDS011;21680;52.400;16.920;2023-07-31T04:19:15;7.30;;;3.90;;
35576;SDS011;21680;52.400;16.920;2023-07-31T04:21:42;7.80;;;4.80;;
35576;SDS011;21680;52.400;16.920;2023-07-31T04:24:07;9.70;;;4.30;;
35576;SDS011;21680;52.400;16.920;2023-07-31T04:26:32;8.30;;;4.30;;
35576;SDS011;21680;52.400;16.920;2023-07-31T04:28:57;9.80;;;3.70;;
35576;SDS011;21680;52.400;16.920;2023-07-31T04:31:23;5.40;;;3.40;;
35576;SDS011;21680;52.400;16.920;2023-07-31T04:33:48;6.70;;;3.70;;
35576;SDS011;21680;52.400;16.920;2023-07-31T04:36:14;9.00;;;3.20;;
35576;SDS011;21680;52.400;16.920;2023-07-31T04:38:39;6.80;;;3.60;;
35576;SDS011;21680;52.400;16.920;2023-07-31T04:41:06;7.00;;;3.60;;
35576;SDS011;21680;52.400;16.920;2023-07-31T04:43:31;8.90;;;3.90;;
35576;SDS011;21680;52.400;16.920;2023-07-31T04:45:56;10.10;;;4.00;;
35576;SDS011;21680;52.400;16.920;2023-07-31T04:48:23;8.50;;;4.80;;
35576;SDS011;21680;52.400;16.920;2023-07-31T04:50:48;8.20;;;4.00;;
35576;SDS011;21680;52.400;16.920;2023-07-31T04:53:14;5.70;;;4.00;;
35576;SDS011;21680;52.400;16.920;2023-07-31T04:55:39;8.60;;;4.20;;
35576;SDS011;21680;52.400;16.920;2023-07-31T04:58:04;10.20;;;3.80;;
35576;SDS011;21680;52.400;16.920;2023-07-31T05:00:29;9.80;;;4.40;;
35576;SDS011;21680;52.400;16.920;2023-07-31T05:02:55;5.80;;;4.30;;
35576;SDS011;21680;52.400;16.920;2023-07-31T05:05:20;9.20;;;4.40;;
35576;SDS011;21680;52.400;16.920;2023-07-31T05:07:45;12.80;;;4.00;;
35576;SDS011;21680;52.400;16.920;2023-07-31T05:10:10;11.00;;;4.20;;
35576;SDS011;21680;52.400;16.920;2023-07-31T05:12:36;8.50;;;4.10;;
35576;SDS011;21680;52.400;16.920;2023-07-31T05:15:01;12.10;;;4.40;;
35576;SDS011;21680;52.400;16.920;2023-07-31T05:17:27;11.70;;;5.10;;
35576;SDS011;21680;52.400;16.920;2023-07-31T05:19:52;7.50;;;4.30;;
35576;SDS011;21680;52.400;16.920;2023-07-31T05:22:17;8.30;;;4.90;;
35576;SDS011;21680;52.400;16.920;2023-07-31T05:24:42;14.10;;;4.60;;
35576;SDS011;21680;52.400;16.920;2023-07-31T05:27:08;10.30;;;4.40;;
35576;SDS011;21680;52.400;16.920;2023-07-31T05:29:34;15.80;;;4.80;;
35576;SDS011;21680;52.400;16.920;2023-07-31T05:32:00;10.20;;;3.80;;
35576;SDS011;21680;52.400;16.920;2023-07-31T05:34:25;6.50;;;4.00;;
35576;SDS011;21680;52.400;16.920;2023-07-31T05:36:50;6.80;;;3.90;;
35576;SDS011;21680;52.400;16.920;2023-07-31T05:39:15;11.40;;;4.20;;
35576;SDS011;21680;52.400;16.920;2023-07-31T05:41:40;8.00;;;4.30;;
35576;SDS011;21680;52.400;16.920;2023-07-31T05:44:06;8.90;;;5.10;;
35576;SDS011;21680;52.400;16.920;2023-07-31T05:46:31;9.70;;;3.70;;
35576;SDS011;21680;52.400;16.920;2023-07-31T05:48:56;7.20;;;3.50;;
35576;SDS011;21680;52.400;16.920;2023-07-31T05:51:22;9.40;;;3.90;;
35576;SDS011;21680;52.400;16.920;2023-07-31T05:53:47;8.30;;;4.40;;
35576;SDS011;21680;52.400;16.920;2023-07-31T05:56:12;8.50;;;4.30;;
35576;SDS011;21680;52.400;16.920;2023-07-31T05:58:37;14.60;;;4.90;;
35576;SDS011;21680;52.400;16.920;2023-07-31T06:01:03;8.10;;;4.10;;
35576;SDS011;21680;52.400;16.920;2023-07-31T06:03:28;10.70;;;4.50;;
35576;SDS011;21680;52.400;16.920;2023-07-31T06:05:53;12.20;;;4.80;;
35576;SDS011;21680;52.400;16.920;2023-07-31T06:08:18;14.10;;;4.70;;
35576;SDS011;21680;52.400;16.920;2023-07-31T06:10:44;11.10;;;4.60;;
35576;SDS011;21680;52.400;16.920;2023-07-31T06:13:09;9.80;;;4.40;;
35576;SDS011;21680;52.400;16.920;2023-07-31T06:15:34;19.50;;;4.90;;
35576;SDS011;21680;52.400;16.920;2023-07-31T06:17:59;14.90;;;4.50;;
35576;SDS011;21680;52.400;16.920;2023-07-31T06:20:27;12.20;;;4.80;;
35576;SDS011;21680;52.400;16.920;2023-07-31T06:22:52;8.60;;;4.00;;
35576;SDS011;21680;52.400;16.920;2023-07-31T06:25:18;10.90;;;4.90;;
35576;SDS011;21680;52.400;16.920;2023-07-31T06:27:43;12.90;;;4.10;;
35576;SDS011;21680;52.400;16.920;2023-07-31T06:30:08;8.90;;;3.00;;
35576;SDS011;21680;52.400;16.920;2023-07-31T06:32:34;11.00;;;2.90;;
35576;SDS011;21680;52.400;16.920;2023-07-31T06:34:59;12.90;;;3.50;;
35576;SDS011;21680;52.400;16.920;2023-07-31T06:37:25;12.50;;;3.90;;
35576;SDS011;21680;52.400;16.920;2023-07-31T06:39:50;15.80;;;4.90;;
35576;SDS011;21680;52.400;16.920;2023-07-31T06:42:15;12.50;;;3.90;;
35576;SDS011;21680;52.400;16.920;2023-07-31T06:44:41;6.40;;;2.90;;
35576;SDS011;21680;52.400;16.920;2023-07-31T06:47:06;17.00;;;4.10;;
35576;SDS011;21680;52.400;16.920;2023-07-31T06:49:31;5.90;;;3.50;;
35576;SDS011;21680;52.400;16.920;2023-07-31T06:51:56;9.00;;;3.90;;
35576;SDS011;21680;52.400;16.920;2023-07-31T06:54:22;5.80;;;2.70;;
35576;SDS011;21680;52.400;16.920;2023-07-31T06:56:47;9.10;;;3.10;;
35576;SDS011;21680;52.400;16.920;2023-07-31T06:59:12;9.80;;;4.70;;
35576;SDS011;21680;52.400;16.920;2023-07-31T07:01:37;13.40;;;3.80;;
35576;SDS011;21680;52.400;16.920;2023-07-31T07:04:03;7.10;;;3.10;;
35576;SDS011;21680;52.400;16.920;2023-07-31T07:06:28;11.00;;;3.40;;
35576;SDS011;21680;52.400;16.920;2023-07-31T07:08:53;7.30;;;3.00;;
35576;SDS011;21680;52.400;16.920;2023-07-31T07:11:18;5.00;;;2.20;;
35576;SDS011;21680;52.400;16.920;2023-07-31T07:13:43;7.80;;;3.20;;
35576;SDS011;21680;52.400;16.920;2023-07-31T07:16:09;8.70;;;3.10;;
35576;SDS011;21680;52.400;16.920;2023-07-31T07:18:35;5.50;;;3.10;;
35576;SDS011;21680;52.400;16.920;2023-07-31T07:21:00;11.20;;;2.80;;
35576;SDS011;21680;52.400;16.920;2023-07-31T07:23:27;7.20;;;2.80;;
35576;SDS011;21680;52.400;16.920;2023-07-31T07:25:52;8.00;;;2.50;;
35576;SDS011;21680;52.400;16.920;2023-07-31T07:28:17;12.00;;;3.40;;
35576;SDS011;21680;52.400;16.920;2023-07-31T07:30:43;11.50;;;2.90;;
35576;SDS011;21680;52.400;16.920;2023-07-31T07:33:08;7.80;;;2.30;;
35576;SDS011;21680;52.400;16.920;2023-07-31T07:35:33;8.80;;;2.40;;
35576;SDS011;21680;52.400;16.920;2023-07-31T07:38:00;7.70;;;2.40;;
35576;SDS011;21680;52.400;16.920;2023-07-31T07:40:25;7.20;;;2.30;;
35576;SDS011;21680;52.400;16.920;2023-07-31T07:42:51;5.70;;;2.40;;
35576;SDS011;21680;52.400;16.920;2023-07-31T07:45:16;5.40;;;2.00;;
35576;SDS011;21680;52.400;16.920;2023-07-31T07:47:41;5.60;;;2.60;;
35576;SDS011;21680;52.400;16.920;2023-07-31T07:50:07;4.80;;;2.50;;
35576;SDS011;21680;52.400;16.920;2023-07-31T07:52:33;4.60;;;2.30;;
35576;SDS011;21680;52.400;16.920;2023-07-31T07:54:58;8.50;;;3.00;;
35576;SDS011;21680;52.400;16.920;2023-07-31T07:57:25;5.40;;;2.90;;
35576;SDS011;21680;52.400;16.920;2023-07-31T07:59:50;8.90;;;2.70;;
35576;SDS011;21680;52.400;16.920;2023-07-31T08:02:16;5.80;;;2.20;;
35576;SDS011;21680;52.400;16.920;2023-07-31T08:04:41;4.00;;;2.60;;
35576;SDS011;21680;52.400;16.920;2023-07-31T08:07:06;4.80;;;2.00;;
35576;SDS011;21680;52.400;16.920;2023-07-31T08:09:31;10.90;;;3.00;;
35576;SDS011;21680;52.400;16.920;2023-07-31T08:11:57;7.00;;;2.70;;
35576;SDS011;21680;52.400;16.920;2023-07-31T08:14:27;7.10;;;3.10;;
35576;SDS011;21680;52.400;16.920;2023-07-31T08:16:52;5.20;;;2.10;;
35576;SDS011;21680;52.400;16.920;2023-07-31T08:19:17;4.90;;;2.40;;
35576;SDS011;21680;52.400;16.920;2023-07-31T08:21:43;7.20;;;2.30;;
35576;SDS011;21680;52.400;16.920;2023-07-31T08:24:08;6.40;;;2.10;;
35576;SDS011;21680;52.400;16.920;2023-07-31T08:26:33;4.30;;;2.20;;
35576;SDS011;21680;52.400;16.920;2023-07-31T08:28:58;6.80;;;2.20;;
35576;SDS011;21680;52.400;16.920;2023-07-31T08:31:24;11.60;;;3.20;;
35576;SDS011;21680;52.400;16.920;2023-07-31T08:33:49;5.80;;;2.50;;
35576;SDS011;21680;52.400;16.920;2023-07-31T08:36:14;12.90;;;2.40;;
35576;SDS011;21680;52.400;16.920;2023-07-31T08:38:39;6.90;;;2.30;;
35576;SDS011;21680;52.400;16.920;2023-07-31T08:41:04;6.00;;;2.80;;
35576;SDS011;21680;52.400;16.920;2023-07-31T08:43:31;5.50;;;2.10;;
35576;SDS011;21680;52.400;16.920;2023-07-31T08:45:58;8.40;;;2.30;;
35576;SDS011;21680;52.400;16.920;2023-07-31T08:48:26;11.10;;;2.10;;
35576;SDS011;21680;52.400;16.920;2023-07-31T08:50:53;8.10;;;3.10;;
35576;SDS011;21680;52.400;16.920;2023-07-31T08:53:18;10.10;;;2.80;;
35576;SDS011;21680;52.400;16.920;2023-07-31T08:55:44;4.90;;;2.10;;
35576;SDS011;21680;52.400;16.920;2023-07-31T08:58:09;5.90;;;2.40;;
35576;SDS011;21680;52.400;16.920;2023-07-31T09:00:37;6.80;;;2.40;;
35576;SDS011;21680;52.400;16.920;2023-07-31T09:03:14;4.70;;;1.80;;
35576;SDS011;21680;52.400;16.920;2023-07-31T09:05:42;6.70;;;2.50;;
35576;SDS011;21680;52.400;16.920;2023-07-31T09:08:09;5.10;;;2.50;;
35576;SDS011;21680;52.400;16.920;2023-07-31T09:10:40;6.80;;;2.00;;
35576;SDS011;21680;52.400;16.920;2023-07-31T09:13:11;7.20;;;1.90;;
35576;SDS011;21680;52.400;16.920;2023-07-31T09:15:36;5.30;;;2.40;;
35576;SDS011;21680;52.400;16.920;2023-07-31T09:18:03;7.50;;;2.80;;
35576;SDS011;21680;52.400;16.920;2023-07-31T09:20:29;8.10;;;2.30;;
35576;SDS011;21680;52.400;16.920;2023-07-31T09:22:55;5.30;;;2.40;;
35576;SDS011;21680;52.400;16.920;2023-07-31T09:25:22;4.40;;;1.90;;
35576;SDS011;21680;52.400;16.920;2023-07-31T09:27:57;7.30;;;2.60;;
35576;SDS011;21680;52.400;16.920;2023-07-31T09:30:24;6.80;;;2.00;;
35576;SDS011;21680;52.400;16.920;2023-07-31T09:32:50;5.60;;;1.70;;
35576;SDS011;21680;52.400;16.920;2023-07-31T09:35:30;6.60;;;2.70;;
35576;SDS011;21680;52.400;16.920;2023-07-31T09:37:58;5.40;;;1.80;;
35576;SDS011;21680;52.400;16.920;2023-07-31T09:40:34;8.50;;;3.00;;
35576;SDS011;21680;52.400;16.920;2023-07-31T09:43:04;7.70;;;2.30;;
35576;SDS011;21680;52.400;16.920;2023-07-31T09:45:33;4.40;;;1.80;;
35576;SDS011;21680;52.400;16.920;2023-07-31T09:48:01;12.70;;;2.90;;
35576;SDS011;21680;52.400;16.920;2023-07-31T09:50:27;8.30;;;2.40;;
35576;SDS011;21680;52.400;16.920;2023-07-31T09:52:54;8.30;;;2.10;;
35576;SDS011;21680;52.400;16.920;2023-07-31T09:55:19;5.30;;;2.10;;
35576;SDS011;21680;52.400;16.920;2023-07-31T09:57:48;5.70;;;2.60;;
35576;SDS011;21680;52.400;16.920;2023-07-31T10:00:17;6.70;;;1.90;;
35576;SDS011;21680;52.400;16.920;2023-07-31T10:02:46;4.50;;;1.80;;
35576;SDS011;21680;52.400;16.920;2023-07-31T10:05:13;4.80;;;2.10;;
35576;SDS011;21680;52.400;16.920;2023-07-31T10:07:42;3.00;;;2.20;;
35576;SDS011;21680;52.400;16.920;2023-07-31T10:10:10;9.00;;;2.70;;
35576;SDS011;21680;52.400;16.920;2023-07-31T10:12:36;8.90;;;3.40;;
35576;SDS011;21680;52.400;16.920;2023-07-31T10:15:02;9.00;;;2.90;;
35576;SDS011;21680;52.400;16.920;2023-07-31T10:17:29;5.70;;;2.50;;
35576;SDS011;21680;52.400;16.920;2023-07-31T10:19:56;8.10;;;2.60;;
35576;SDS011;21680;52.400;16.920;2023-07-31T10:22:28;11.40;;;3.00;;
35576;SDS011;21680;52.400;16.920;2023-07-31T10:24:55;10.30;;;2.80;;
35576;SDS011;21680;52.400;16.920;2023-07-31T10:27:23;5.00;;;2.60;;
35576;SDS011;21680;52.400;16.920;2023-07-31T10:29:48;7.00;;;2.90;;
35576;SDS011;21680;52.400;16.920;2023-07-31T10:32:14;7.50;;;2.60;;
35576;SDS011;21680;52.400;16.920;2023-07-31T10:34:41;8.40;;;3.30;;
35576;SDS011;21680;52.400;16.920;2023-07-31T10:37:19;10.70;;;3.50;;
35576;SDS011;21680;52.400;16.920;2023-07-31T10:39:44;4.50;;;2.60;;
35576;SDS011;21680;52.400;16.920;2023-07-31T10:45:05;5.20;;;3.00;;
35576;SDS011;21680;52.400;16.920;2023-07-31T10:50:16;10.00;;;3.20;;
35576;SDS011;21680;52.400;16.920;2023-07-31T10:52:50;7.90;;;3.20;;
35576;SDS011;21680;52.400;16.920;2023-07-31T10:57:51;5.60;;;2.90;;
35576;SDS011;21680;52.400;16.920;2023-07-31T11:00:18;12.20;;;3.30;;
35576;SDS011;21680;52.400;16.920;2023-07-31T11:02:59;4.00;;;2.30;;
35576;SDS011;21680;52.400;16.920;2023-07-31T11:05:47;4.20;;;2.60;;
35576;SDS011;21680;52.400;16.920;2023-07-31T11:08:36;5.30;;;2.70;;
35576;SDS011;21680;52.400;16.920;2023-07-31T11:11:11;12.30;;;2.90;;
35576;SDS011;21680;52.400;16.920;2023-07-31T11:16:17;4.40;;;2.70;;
35576;SDS011;21680;52.400;16.920;2023-07-31T11:18:44;4.80;;;2.80;;
35576;SDS011;21680;52.400;16.920;2023-07-31T11:21:13;6.50;;;2.80;;
35576;SDS011;21680;52.400;16.920;2023-07-31T11:23:47;5.20;;;2.20;;
35576;SDS011;21680;52.400;16.920;2023-07-31T11:26:14;5.60;;;2.20;;
35576;SDS011;21680;52.400;16.920;2023-07-31T11:28:42;2.00;;;1.80;;
35576;SDS011;21680;52.400;16.920;2023-07-31T11:31:10;4.00;;;1.70;;
35576;SDS011;21680;52.400;16.920;2023-07-31T11:33:36;3.70;;;2.10;;
35576;SDS011;21680;52.400;16.920;2023-07-31T11:36:10;8.30;;;2.60;;
35576;SDS011;21680;52.400;16.920;2023-07-31T11:38:40;2.50;;;2.00;;
35576;SDS011;21680;52.400;16.920;2023-07-31T11:41:06;8.00;;;2.10;;
35576;SDS011;21680;52.400;16.920;2023-07-31T11:43:31;2.40;;;1.90;;
35576;SDS011;21680;52.400;16.920;2023-07-31T11:45:57;5.30;;;1.90;;
35576;SDS011;21680;52.400;16.920;2023-07-31T11:48:25;1.40;;;1.30;;
35576;SDS011;21680;52.400;16.920;2023-07-31T11:50:57;2.90;;;1.70;;
35576;SDS011;21680;52.400;16.920;2023-07-31T11:53:28;2.60;;;1.90;;
35576;SDS011;21680;52.400;16.920;2023-07-31T11:55:59;2.90;;;2.20;;
35576;SDS011;21680;52.400;16.920;2023-07-31T11:58:25;3.80;;;2.10;;
35576;SDS011;21680;52.400;16.920;2023-07-31T12:00:52;2.90;;;2.10;;
35576;SDS011;21680;52.400;16.920;2023-07-31T12:03:18;4.50;;;1.70;;
35576;SDS011;21680;52.400;16.920;2023-07-31T12:05:44;3.20;;;2.10;;
35576;SDS011;21680;52.400;16.920;2023-07-31T12:08:10;2.70;;;2.20;;
35576;SDS011;21680;52.400;16.920;2023-07-31T12:10:37;5.10;;;2.90;;
35576;SDS011;21680;52.400;16.920;2023-07-31T12:13:04;7.40;;;3.00;;
35576;SDS011;21680;52.400;16.920;2023-07-31T12:18:00;4.90;;;3.10;;
35576;SDS011;21680;52.400;16.920;2023-07-31T12:20:29;4.70;;;3.00;;
35576;SDS011;21680;52.400;16.920;2023-07-31T12:22:56;6.10;;;3.10;;
35576;SDS011;21680;52.400;16.920;2023-07-31T12:25:23;5.70;;;2.60;;
35576;SDS011;21680;52.400;16.920;2023-07-31T12:27:48;6.10;;;3.30;;
35576;SDS011;21680;52.400;16.920;2023-07-31T12:32:54;4.90;;;3.10;;
35576;SDS011;21680;52.400;16.920;2023-07-31T12:35:19;5.90;;;2.80;;
35576;SDS011;21680;52.400;16.920;2023-07-31T12:37:44;7.20;;;2.90;;
35576;SDS011;21680;52.400;16.920;2023-07-31T12:40:10;4.40;;;3.10;;
35576;SDS011;21680;52.400;16.920;2023-07-31T12:42:35;6.30;;;3.30;;
35576;SDS011;21680;52.400;16.920;2023-07-31T12:45:01;7.00;;;3.10;;
35576;SDS011;21680;52.400;16.920;2023-07-31T12:47:26;7.20;;;2.90;;
35576;SDS011;21680;52.400;16.920;2023-07-31T12:49:51;7.90;;;2.70;;
35576;SDS011;21680;52.400;16.920;2023-07-31T12:52:17;11.50;;;3.70;;
35576;SDS011;21680;52.400;16.920;2023-07-31T12:54:42;4.40;;;3.30;;
35576;SDS011;21680;52.400;16.920;2023-07-31T12:57:07;25.50;;;4.70;;
35576;SDS011;21680;52.400;16.920;2023-07-31T12:59:32;8.50;;;3.00;;
35576;SDS011;21680;52.400;16.920;2023-07-31T13:01:57;10.40;;;4.10;;
35576;SDS011;21680;52.400;16.920;2023-07-31T13:04:23;6.40;;;2.80;;
35576;SDS011;21680;52.400;16.920;2023-07-31T13:06:48;7.10;;;3.30;;
35576;SDS011;21680;52.400;16.920;2023-07-31T13:09:13;7.10;;;3.30;;
35576;SDS011;21680;52.400;16.920;2023-07-31T13:11:42;5.40;;;2.80;;
35576;SDS011;21680;52.400;16.920;2023-07-31T13:14:07;5.40;;;2.90;;
35576;SDS011;21680;52.400;16.920;2023-07-31T13:16:32;5.50;;;2.90;;
35576;SDS011;21680;52.400;16.920;2023-07-31T13:18:58;8.70;;;3.40;;
35576;SDS011;21680;52.400;16.920;2023-07-31T13:21:23;10.20;;;3.30;;
35576;SDS011;21680;52.400;16.920;2023-07-31T13:23:48;4.80;;;2.70;;
35576;SDS011;21680;52.400;16.920;2023-07-31T13:26:13;5.80;;;2.90;;
35576;SDS011;21680;52.400;16.920;2023-07-31T13:28:38;6.60;;;2.90;;
35576;SDS011;21680;52.400;16.920;2023-07-31T13:31:04;8.30;;;2.60;;
35576;SDS011;21680;52.400;16.920;2023-07-31T13:33:29;5.90;;;2.80;;
35576;SDS011;21680;52.400;16.920;2023-07-31T13:35:54;4.50;;;2.40;;
35576;SDS011;21680;52.400;16.920;2023-07-31T13:38:19;5.50;;;2.80;;
35576;SDS011;21680;52.400;16.920;2023-07-31T13:40:44;10.80;;;3.50;;
35576;SDS011;21680;52.400;16.920;2023-07-31T13:43:10;4.30;;;2.90;;
35576;SDS011;21680;52.400;16.920;2023-07-31T13:45:35;5.10;;;2.40;;
35576;SDS011;21680;52.400;16.920;2023-07-31T13:48:00;6.40;;;2.70;;
35576;SDS011;21680;52.400;16.920;2023-07-31T13:50:25;5.40;;;2.60;;
35576;SDS011;21680;52.400;16.920;2023-07-31T13:52:51;8.60;;;3.30;;
35576;SDS011;21680;52.400;16.920;2023-07-31T13:55:16;8.00;;;2.90;;
35576;SDS011;21680;52.400;16.920;2023-07-31T13:57:41;5.70;;;2.70;;
35576;SDS011;21680;52.400;16.920;2023-07-31T14:00:07;10.20;;;3.50;;
35576;SDS011;21680;52.400;16.920;2023-07-31T14:02:34;7.10;;;2.50;;
35576;SDS011;21680;52.400;16.920;2023-07-31T14:04:59;6.90;;;2.80;;
35576;SDS011;21680;52.400;16.920;2023-07-31T14:07:25;7.10;;;2.90;;
35576;SDS011;21680;52.400;16.920;2023-07-31T14:09:50;5.80;;;2.40;;
35576;SDS011;21680;52.400;16.920;2023-07-31T14:12:15;3.70;;;2.80;;
35576;SDS011;21680;52.400;16.920;2023-07-31T14:14:40;6.20;;;2.70;;
35576;SDS011;21680;52.400;16.920;2023-07-31T14:17:06;4.80;;;2.70;;
35576;SDS011;21680;52.400;16.920;2023-07-31T14:19:31;5.50;;;2.90;;
35576;SDS011;21680;52.400;16.920;2023-07-31T14:21:58;8.90;;;2.90;;
35576;SDS011;21680;52.400;16.920;2023-07-31T14:24:23;7.80;;;2.40;;
35576;SDS011;21680;52.400;16.920;2023-07-31T14:26:49;7.30;;;2.80;;
35576;SDS011;21680;52.400;16.920;2023-07-31T14:29:14;6.60;;;2.80;;
35576;SDS011;21680;52.400;16.920;2023-07-31T14:31:39;5.60;;;2.80;;
35576;SDS011;21680;52.400;16.920;2023-07-31T14:34:04;4.70;;;2.60;;
35576;SDS011;21680;52.400;16.920;2023-07-31T14:36:30;5.20;;;2.60;;
35576;SDS011;21680;52.400;16.920;2023-07-31T14:38:55;12.50;;;2.90;;
35576;SDS011;21680;52.400;16.920;2023-07-31T14:41:20;4.30;;;2.30;;
35576;SDS011;21680;52.400;16.920;2023-07-31T14:43:46;4.50;;;2.50;;
35576;SDS011;21680;52.400;16.920;2023-07-31T14:46:11;10.90;;;3.00;;
35576;SDS011;21680;52.400;16.920;2023-07-31T14:48:36;5.30;;;2.50;;